sensor_id;sensor_type;location;lat;lon;timestamp;P1;durP1;ratioP1;P2;durP2;ratioP2
66012;SDS011;52783;50.502;8.190;2023-07-30T00:00:52;4.95;;;2.33;;
66012;SDS011;52783;50.502;8.190;2023-07-30T00:03:17;4.82;;;2.50;;
66012;SDS011;52783;50.502;8.190;2023-07-30T00:05:51;9.43;;;3.40;;
66012;SDS011;52783;50.502;8.190;2023-07-30T00:08:20;13.65;;;2.70;;
66012;SDS011;52783;50.502;8.190;2023-07-30T00:10:45;2.97;;;2.10;;
66012;SDS011;52783;50.502;8.190;2023-07-30T00:13:11;8.93;;;2.50;;
66012;SDS011;52783;50.502;8.190;2023-07-30T00:15:36;7.93;;;2.47;;
66012;SDS011;52783;50.502;8.190;2023-07-30T00:18:02;4.82;;;2.72;;
66012;SDS011;52783;50.502;8.190;2023-07-30T00:20:27;11.23;;;3.30;;
66012;SDS011;52783;50.502;8.190;2023-07-30T00:22:53;4.38;;;2.40;;
66012;SDS011;52783;50.502;8.190;2023-07-30T00:25:18;4.70;;;2.40;;
66012;SDS011;52783;50.502;8.190;2023-07-30T00:27:44;5.82;;;2.50;;
66012;SDS011;52783;50.502;8.190;2023-07-30T00:30:10;7.22;;;2.58;;
66012;SDS011;52783;50.502;8.190;2023-07-30T00:32:35;10.82;;;2.20;;
66012;SDS011;52783;50.502;8.190;2023-07-30T00:35:05;3.42;;;2.40;;
66012;SDS011;52783;50.502;8.190;2023-07-30T00:37:31;5.95;;;2.38;;
66012;SDS011;52783;50.502;8.190;2023-07-30T00:39:57;5.03;;;2.17;;
66012;SDS011;52783;50.502;8.190;2023-07-30T00:42:22;5.05;;;2.70;;
66012;SDS011;52783;50.502;8.190;2023-07-30T00:44:48;3.28;;;2.10;;
66012;SDS011;52783;50.502;8.190;2023-07-30T00:47:14;3.47;;;2.53;;
66012;SDS011;52783;50.502;8.190;2023-07-30T00:49:39;3.50;;;2.53;;
66012;SDS011;52783;50.502;8.190;2023-07-30T00:52:05;3.35;;;2.38;;
66012;SDS011;52783;50.502;8.190;2023-07-30T00:54:31;2.65;;;2.10;;
66012;SDS011;52783;50.502;8.190;2023-07-30T00:56:57;6.35;;;2.20;;
66012;SDS011;52783;50.502;8.190;2023-07-30T00:59:23;8.73;;;2.22;;
66012;SDS011;52783;50.502;8.190;2023-07-30T01:01:48;2.22;;;2.03;;
66012;SDS011;52783;50.502;8.190;2023-07-30T01:04:16;7.40;;;2.65;;
66012;SDS011;52783;50.502;8.190;2023-07-30T01:06:42;2.60;;;2.35;;
66012;SDS011;52783;50.502;8.190;2023-07-30T01:09:09;3.53;;;2.25;;
66012;SDS011;52783;50.502;8.190;2023-07-30T01:11:36;5.60;;;2.20;;
66012;SDS011;52783;50.502;8.190;2023-07-30T01:14:02;2.35;;;2.15;;
66012;SDS011;52783;50.502;8.190;2023-07-30T01:16:30;3.55;;;2.30;;
66012;SDS011;52783;50.502;8.190;2023-07-30T01:18:56;3.05;;;2.17;;
66012;SDS011;52783;50.502;8.190;2023-07-30T01:21:23;2.17;;;2.00;;
66012;SDS011;52783;50.502;8.190;2023-07-30T01:23:49;3.28;;;2.47;;
66012;SDS011;52783;50.502;8.190;2023-07-30T01:26:22;3.25;;;2.20;;
66012;SDS011;52783;50.502;8.190;2023-07-30T01:28:51;2.40;;;2.20;;
66012;SDS011;52783;50.502;8.190;2023-07-30T01:31:21;3.85;;;2.30;;
66012;SDS011;52783;50.502;8.190;2023-07-30T01:33:52;9.45;;;2.40;;
66012;SDS011;52783;50.502;8.190;2023-07-30T01:36:20;7.10;;;2.40;;
66012;SDS011;52783;50.502;8.190;2023-07-30T01:38:47;7.90;;;2.30;;
66012;SDS011;52783;50.502;8.190;2023-07-30T01:41:14;4.10;;;2.70;;
66012;SDS011;52783;50.502;8.190;2023-07-30T01:43:39;7.70;;;2.90;;
66012;SDS011;52783;50.502;8.190;2023-07-30T01:46:05;5.50;;;2.28;;
66012;SDS011;52783;50.502;8.190;2023-07-30T01:48:30;6.13;;;2.30;;
66012;SDS011;52783;50.502;8.190;2023-07-30T01:50:56;2.88;;;2.30;;
66012;SDS011;52783;50.502;8.190;2023-07-30T01:53:21;3.88;;;2.30;;
66012;SDS011;52783;50.502;8.190;2023-07-30T01:55:47;9.98;;;2.53;;
66012;SDS011;52783;50.502;8.190;2023-07-30T01:58:12;5.75;;;2.22;;
66012;SDS011;52783;50.502;8.190;2023-07-30T02:00:38;7.18;;;2.50;;
66012;SDS011;52783;50.502;8.190;2023-07-30T02:03:04;7.13;;;2.70;;
66012;SDS011;52783;50.502;8.190;2023-07-30T02:05:30;3.53;;;2.35;;
66012;SDS011;52783;50.502;8.190;2023-07-30T02:07:56;5.07;;;2.97;;
66012;SDS011;52783;50.502;8.190;2023-07-30T02:10:24;3.10;;;2.80;;
66012;SDS011;52783;50.502;8.190;2023-07-30T02:12:50;8.23;;;2.80;;
66012;SDS011;52783;50.502;8.190;2023-07-30T02:15:16;5.25;;;2.95;;
66012;SDS011;52783;50.502;8.190;2023-07-30T02:17:41;7.03;;;3.05;;
66012;SDS011;52783;50.502;8.190;2023-07-30T02:20:07;3.58;;;2.75;;
66012;SDS011;52783;50.502;8.190;2023-07-30T02:22:34;4.75;;;2.75;;
66012;SDS011;52783;50.502;8.190;2023-07-30T02:24:59;7.32;;;2.70;;
66012;SDS011;52783;50.502;8.190;2023-07-30T02:27:25;4.25;;;2.78;;
66012;SDS011;52783;50.502;8.190;2023-07-30T02:29:51;5.82;;;2.85;;
66012;SDS011;52783;50.502;8.190;2023-07-30T02:32:16;3.00;;;2.70;;
66012;SDS011;52783;50.502;8.190;2023-07-30T02:34:42;4.88;;;3.15;;
66012;SDS011;52783;50.502;8.190;2023-07-30T02:37:07;8.70;;;3.10;;
66012;SDS011;52783;50.502;8.190;2023-07-30T02:39:33;6.80;;;3.40;;
66012;SDS011;52783;50.502;8.190;2023-07-30T02:41:58;9.00;;;3.50;;
66012;SDS011;52783;50.502;8.190;2023-07-30T02:44:24;4.75;;;2.75;;
66012;SDS011;52783;50.502;8.190;2023-07-30T02:46:49;6.03;;;3.33;;
66012;SDS011;52783;50.502;8.190;2023-07-30T02:49:15;8.50;;;3.30;;
66012;SDS011;52783;50.502;8.190;2023-07-30T02:51:40;8.93;;;3.50;;
66012;SDS011;52783;50.502;8.190;2023-07-30T02:54:08;6.95;;;3.30;;
66012;SDS011;52783;50.502;8.190;2023-07-30T02:56:34;4.82;;;3.20;;
66012;SDS011;52783;50.502;8.190;2023-07-30T02:59:00;7.38;;;3.42;;
66012;SDS011;52783;50.502;8.190;2023-07-30T03:01:26;7.25;;;3.10;;
66012;SDS011;52783;50.502;8.190;2023-07-30T03:07:14;5.15;;;3.22;;
66012;SDS011;52783;50.502;8.190;2023-07-30T03:09:39;4.43;;;3.10;;
66012;SDS011;52783;50.502;8.190;2023-07-30T03:12:05;7.40;;;3.22;;
66012;SDS011;52783;50.502;8.190;2023-07-30T03:14:31;3.90;;;2.83;;
66012;SDS011;52783;50.502;8.190;2023-07-30T03:16:56;10.57;;;2.88;;
66012;SDS011;52783;50.502;8.190;2023-07-30T03:19:22;4.30;;;2.60;;
66012;SDS011;52783;50.502;8.190;2023-07-30T03:21:47;5.55;;;2.80;;
66012;SDS011;52783;50.502;8.190;2023-07-30T03:24:13;5.55;;;2.55;;
66012;SDS011;52783;50.502;8.190;2023-07-30T03:26:38;6.72;;;2.80;;
66012;SDS011;52783;50.502;8.190;2023-07-30T03:29:04;8.38;;;2.88;;
66012;SDS011;52783;50.502;8.190;2023-07-30T03:31:29;4.00;;;2.45;;
66012;SDS011;52783;50.502;8.190;2023-07-30T03:33:55;5.03;;;2.40;;
66012;SDS011;52783;50.502;8.190;2023-07-30T03:36:20;8.70;;;2.53;;
66012;SDS011;52783;50.502;8.190;2023-07-30T03:38:46;3.67;;;2.60;;
66012;SDS011;52783;50.502;8.190;2023-07-30T03:41:11;4.55;;;2.50;;
66012;SDS011;52783;50.502;8.190;2023-07-30T03:43:37;3.70;;;2.40;;
66012;SDS011;52783;50.502;8.190;2023-07-30T03:46:02;3.85;;;2.30;;
66012;SDS011;52783;50.502;8.190;2023-07-30T03:48:28;3.17;;;2.40;;
66012;SDS011;52783;50.502;8.190;2023-07-30T03:50:54;4.40;;;2.45;;
66012;SDS011;52783;50.502;8.190;2023-07-30T03:53:20;7.53;;;2.30;;
66012;SDS011;52783;50.502;8.190;2023-07-30T03:55:46;5.72;;;2.50;;
66012;SDS011;52783;50.502;8.190;2023-07-30T03:58:12;4.10;;;2.50;;
66012;SDS011;52783;50.502;8.190;2023-07-30T04:00:38;5.53;;;2.60;;
66012;SDS011;52783;50.502;8.190;2023-07-30T04:03:03;3.40;;;2.40;;
66012;SDS011;52783;50.502;8.190;2023-07-30T04:05:29;5.90;;;2.72;;
66012;SDS011;52783;50.502;8.190;2023-07-30T04:07:55;4.38;;;2.50;;
66012;SDS011;52783;50.502;8.190;2023-07-30T04:10:21;14.77;;;3.08;;
66012;SDS011;52783;50.502;8.190;2023-07-30T04:12:47;3.63;;;2.40;;
66012;SDS011;52783;50.502;8.190;2023-07-30T04:15:12;4.60;;;2.83;;
66012;SDS011;52783;50.502;8.190;2023-07-30T04:17:39;15.52;;;3.38;;
66012;SDS011;52783;50.502;8.190;2023-07-30T04:20:05;5.20;;;2.92;;
66012;SDS011;52783;50.502;8.190;2023-07-30T04:22:31;7.43;;;2.70;;
66012;SDS011;52783;50.502;8.190;2023-07-30T04:24:56;5.68;;;2.65;;
66012;SDS011;52783;50.502;8.190;2023-07-30T04:27:22;5.82;;;2.50;;
66012;SDS011;52783;50.502;8.190;2023-07-30T04:29:47;5.88;;;2.55;;
66012;SDS011;52783;50.502;8.190;2023-07-30T04:32:13;8.43;;;2.47;;
66012;SDS011;52783;50.502;8.190;2023-07-30T04:34:39;11.02;;;2.80;;
66012;SDS011;52783;50.502;8.190;2023-07-30T04:37:05;3.30;;;2.40;;
66012;SDS011;52783;50.502;8.190;2023-07-30T04:39:34;6.45;;;2.90;;
66012;SDS011;52783;50.502;8.190;2023-07-30T04:42:00;4.90;;;2.53;;
66012;SDS011;52783;50.502;8.190;2023-07-30T04:44:26;3.47;;;2.40;;
66012;SDS011;52783;50.502;8.190;2023-07-30T04:46:52;8.32;;;2.90;;
66012;SDS011;52783;50.502;8.190;2023-07-30T04:49:17;4.43;;;2.17;;
66012;SDS011;52783;50.502;8.190;2023-07-30T04:51:43;5.35;;;2.28;;
66012;SDS011;52783;50.502;8.190;2023-07-30T04:54:08;2.33;;;2.13;;
66012;SDS011;52783;50.502;8.190;2023-07-30T04:56:34;7.53;;;2.58;;
66012;SDS011;52783;50.502;8.190;2023-07-30T04:59:00;5.13;;;2.42;;
66012;SDS011;52783;50.502;8.190;2023-07-30T05:01:26;3.78;;;2.40;;
66012;SDS011;52783;50.502;8.190;2023-07-30T05:03:52;4.45;;;2.10;;
66012;SDS011;52783;50.502;8.190;2023-07-30T05:06:18;5.72;;;2.80;;
66012;SDS011;52783;50.502;8.190;2023-07-30T05:08:43;5.57;;;2.45;;
66012;SDS011;52783;50.502;8.190;2023-07-30T05:11:09;4.43;;;2.35;;
66012;SDS011;52783;50.502;8.190;2023-07-30T05:13:34;6.82;;;2.42;;
66012;SDS011;52783;50.502;8.190;2023-07-30T05:16:00;5.97;;;2.47;;
66012;SDS011;52783;50.502;8.190;2023-07-30T05:18:26;5.57;;;2.30;;
66012;SDS011;52783;50.502;8.190;2023-07-30T05:20:52;9.50;;;2.42;;
66012;SDS011;52783;50.502;8.190;2023-07-30T05:23:17;10.77;;;2.50;;
66012;SDS011;52783;50.502;8.190;2023-07-30T05:25:43;5.30;;;2.00;;
66012;SDS011;52783;50.502;8.190;2023-07-30T05:28:08;4.03;;;2.22;;
66012;SDS011;52783;50.502;8.190;2023-07-30T05:30:34;3.85;;;2.10;;
66012;SDS011;52783;50.502;8.190;2023-07-30T05:32:59;6.30;;;2.50;;
66012;SDS011;52783;50.502;8.190;2023-07-30T05:35:25;2.70;;;2.15;;
66012;SDS011;52783;50.502;8.190;2023-07-30T05:37:50;6.05;;;2.17;;
66012;SDS011;52783;50.502;8.190;2023-07-30T05:40:16;6.25;;;2.20;;
66012;SDS011;52783;50.502;8.190;2023-07-30T05:42:42;6.38;;;2.15;;
66012;SDS011;52783;50.502;8.190;2023-07-30T05:45:07;6.07;;;2.65;;
66012;SDS011;52783;50.502;8.190;2023-07-30T05:47:33;3.83;;;2.33;;
66012;SDS011;52783;50.502;8.190;2023-07-30T05:49:59;5.68;;;2.35;;
66012;SDS011;52783;50.502;8.190;2023-07-30T05:52:24;3.80;;;2.30;;
66012;SDS011;52783;50.502;8.190;2023-07-30T05:54:50;2.92;;;2.20;;
66012;SDS011;52783;50.502;8.190;2023-07-30T05:57:15;6.25;;;2.40;;
66012;SDS011;52783;50.502;8.190;2023-07-30T05:59:41;8.07;;;2.17;;
66012;SDS011;52783;50.502;8.190;2023-07-30T06:02:06;6.40;;;2.33;;
66012;SDS011;52783;50.502;8.190;2023-07-30T06:04:32;6.75;;;2.10;;
66012;SDS011;52783;50.502;8.190;2023-07-30T06:06:59;5.30;;;2.28;;
66012;SDS011;52783;50.502;8.190;2023-07-30T06:09:25;4.85;;;2.10;;
66012;SDS011;52783;50.502;8.190;2023-07-30T06:11:51;3.15;;;2.03;;
66012;SDS011;52783;50.502;8.190;2023-07-30T06:14:16;2.85;;;2.20;;
66012;SDS011;52783;50.502;8.190;2023-07-30T06:16:42;4.10;;;2.33;;
66012;SDS011;52783;50.502;8.190;2023-07-30T06:19:08;9.32;;;2.20;;
66012;SDS011;52783;50.502;8.190;2023-07-30T06:21:34;5.15;;;2.20;;
66012;SDS011;52783;50.502;8.190;2023-07-30T06:23:59;2.20;;;1.90;;
66012;SDS011;52783;50.502;8.190;2023-07-30T06:26:25;2.95;;;2.00;;
66012;SDS011;52783;50.502;8.190;2023-07-30T06:28:50;4.15;;;2.00;;
66012;SDS011;52783;50.502;8.190;2023-07-30T06:31:16;2.60;;;2.10;;
66012;SDS011;52783;50.502;8.190;2023-07-30T06:33:41;10.25;;;1.83;;
66012;SDS011;52783;50.502;8.190;2023-07-30T06:36:07;4.50;;;2.10;;
66012;SDS011;52783;50.502;8.190;2023-07-30T06:38:32;2.95;;;1.88;;
66012;SDS011;52783;50.502;8.190;2023-07-30T06:40:58;2.08;;;1.65;;
66012;SDS011;52783;50.502;8.190;2023-07-30T06:43:23;3.75;;;1.70;;
66012;SDS011;52783;50.502;8.190;2023-07-30T06:45:49;2.97;;;1.80;;
66012;SDS011;52783;50.502;8.190;2023-07-30T06:48:14;5.07;;;1.77;;
66012;SDS011;52783;50.502;8.190;2023-07-30T06:50:40;7.90;;;2.15;;
66012;SDS011;52783;50.502;8.190;2023-07-30T06:53:06;5.22;;;1.90;;
66012;SDS011;52783;50.502;8.190;2023-07-30T06:55:32;2.80;;;2.00;;
66012;SDS011;52783;50.502;8.190;2023-07-30T06:57:58;5.85;;;1.80;;
66012;SDS011;52783;50.502;8.190;2023-07-30T07:00:24;3.58;;;1.75;;
66012;SDS011;52783;50.502;8.190;2023-07-30T07:02:50;2.53;;;1.67;;
66012;SDS011;52783;50.502;8.190;2023-07-30T07:05:15;3.67;;;1.77;;
66012;SDS011;52783;50.502;8.190;2023-07-30T07:07:41;9.75;;;1.65;;
66012;SDS011;52783;50.502;8.190;2023-07-30T07:10:07;2.63;;;1.90;;
66012;SDS011;52783;50.502;8.190;2023-07-30T07:12:33;2.78;;;1.70;;
66012;SDS011;52783;50.502;8.190;2023-07-30T07:14:58;2.63;;;1.80;;
66012;SDS011;52783;50.502;8.190;2023-07-30T07:17:26;9.77;;;1.92;;
66012;SDS011;52783;50.502;8.190;2023-07-30T07:19:52;4.50;;;1.75;;
66012;SDS011;52783;50.502;8.190;2023-07-30T07:22:17;5.57;;;1.80;;
66012;SDS011;52783;50.502;8.190;2023-07-30T07:24:43;5.85;;;1.90;;
66012;SDS011;52783;50.502;8.190;2023-07-30T07:27:09;9.05;;;1.95;;
66012;SDS011;52783;50.502;8.190;2023-07-30T07:29:35;7.47;;;1.77;;
66012;SDS011;52783;50.502;8.190;2023-07-30T07:32:01;8.30;;;2.20;;
66012;SDS011;52783;50.502;8.190;2023-07-30T07:34:27;4.57;;;1.85;;
66012;SDS011;52783;50.502;8.190;2023-07-30T07:36:52;4.32;;;1.85;;
66012;SDS011;52783;50.502;8.190;2023-07-30T07:39:18;2.95;;;1.83;;
66012;SDS011;52783;50.502;8.190;2023-07-30T07:41:44;4.72;;;1.65;;
66012;SDS011;52783;50.502;8.190;2023-07-30T07:44:10;3.63;;;2.00;;
66012;SDS011;52783;50.502;8.190;2023-07-30T07:46:35;4.93;;;1.80;;
66012;SDS011;52783;50.502;8.190;2023-07-30T07:49:01;5.78;;;2.22;;
66012;SDS011;52783;50.502;8.190;2023-07-30T07:51:26;8.27;;;1.90;;
66012;SDS011;52783;50.502;8.190;2023-07-30T07:53:52;7.75;;;2.03;;
66012;SDS011;52783;50.502;8.190;2023-07-30T07:56:17;5.85;;;1.83;;
66012;SDS011;52783;50.502;8.190;2023-07-30T07:58:43;3.88;;;1.98;;
66012;SDS011;52783;50.502;8.190;2023-07-30T08:01:08;8.35;;;2.13;;
66012;SDS011;52783;50.502;8.190;2023-07-30T08:03:34;3.45;;;2.10;;
66012;SDS011;52783;50.502;8.190;2023-07-30T08:06:00;4.70;;;1.83;;
66012;SDS011;52783;50.502;8.190;2023-07-30T08:08:26;10.10;;;2.40;;
66012;SDS011;52783;50.502;8.190;2023-07-30T08:10:52;5.00;;;2.03;;
66012;SDS011;52783;50.502;8.190;2023-07-30T08:13:18;4.03;;;2.00;;
66012;SDS011;52783;50.502;8.190;2023-07-30T08:15:43;14.85;;;2.30;;
66012;SDS011;52783;50.502;8.190;2023-07-30T08:18:09;12.48;;;2.60;;
66012;SDS011;52783;50.502;8.190;2023-07-30T08:20:35;7.75;;;2.10;;
66012;SDS011;52783;50.502;8.190;2023-07-30T08:23:01;6.25;;;2.20;;
66012;SDS011;52783;50.502;8.190;2023-07-30T08:25:27;3.55;;;2.33;;
66012;SDS011;52783;50.502;8.190;2023-07-30T08:27:53;10.27;;;2.47;;
66012;SDS011;52783;50.502;8.190;2023-07-30T08:30:18;12.23;;;2.45;;
66012;SDS011;52783;50.502;8.190;2023-07-30T08:32:44;5.00;;;2.38;;
66012;SDS011;52783;50.502;8.190;2023-07-30T08:35:09;7.75;;;2.95;;
66012;SDS011;52783;50.502;8.190;2023-07-30T08:37:35;9.45;;;2.70;;
66012;SDS011;52783;50.502;8.190;2023-07-30T08:40:01;6.88;;;2.38;;
66012;SDS011;52783;50.502;8.190;2023-07-30T08:42:27;7.72;;;2.90;;
66012;SDS011;52783;50.502;8.190;2023-07-30T08:44:53;6.32;;;2.60;;
66012;SDS011;52783;50.502;8.190;2023-07-30T08:47:18;9.30;;;2.85;;
66012;SDS011;52783;50.502;8.190;2023-07-30T08:49:44;6.03;;;2.58;;
66012;SDS011;52783;50.502;8.190;2023-07-30T08:52:10;5.28;;;2.63;;
66012;SDS011;52783;50.502;8.190;2023-07-30T08:54:36;10.40;;;2.55;;
66012;SDS011;52783;50.502;8.190;2023-07-30T08:57:03;11.07;;;2.72;;
66012;SDS011;52783;50.502;8.190;2023-07-30T08:59:37;3.70;;;2.35;;
66012;SDS011;52783;50.502;8.190;2023-07-30T09:02:09;4.10;;;2.30;;
66012;SDS011;52783;50.502;8.190;2023-07-30T09:04:42;6.07;;;2.63;;
66012;SDS011;52783;50.502;8.190;2023-07-30T09:07:11;5.55;;;2.47;;
66012;SDS011;52783;50.502;8.190;2023-07-30T09:09:36;6.72;;;2.33;;
66012;SDS011;52783;50.502;8.190;2023-07-30T09:12:02;6.03;;;2.20;;
66012;SDS011;52783;50.502;8.190;2023-07-30T09:14:28;4.93;;;2.38;;
66012;SDS011;52783;50.502;8.190;2023-07-30T09:16:57;8.07;;;1.98;;
66012;SDS011;52783;50.502;8.190;2023-07-30T09:19:25;2.97;;;1.80;;
66012;SDS011;52783;50.502;8.190;2023-07-30T09:21:52;5.88;;;1.90;;
66012;SDS011;52783;50.502;8.190;2023-07-30T09:24:20;2.83;;;1.50;;
66012;SDS011;52783;50.502;8.190;2023-07-30T09:26:46;1.52;;;1.20;;
66012;SDS011;52783;50.502;8.190;2023-07-30T09:29:12;3.33;;;1.70;;
66012;SDS011;52783;50.502;8.190;2023-07-30T09:31:47;1.90;;;1.17;;
66012;SDS011;52783;50.502;8.190;2023-07-30T09:34:17;2.80;;;1.33;;
66012;SDS011;52783;50.502;8.190;2023-07-30T09:36:44;3.72;;;1.30;;
66012;SDS011;52783;50.502;8.190;2023-07-30T09:39:17;1.83;;;1.40;;
66012;SDS011;52783;50.502;8.190;2023-07-30T09:41:45;1.30;;;1.20;;
66012;SDS011;52783;50.502;8.190;2023-07-30T09:44:11;1.30;;;1.10;;
66012;SDS011;52783;50.502;8.190;2023-07-30T09:46:44;3.88;;;1.20;;
66012;SDS011;52783;50.502;8.190;2023-07-30T09:49:11;1.55;;;1.15;;
66012;SDS011;52783;50.502;8.190;2023-07-30T09:51:37;3.60;;;1.42;;
66012;SDS011;52783;50.502;8.190;2023-07-30T09:54:13;4.45;;;1.35;;
66012;SDS011;52783;50.502;8.190;2023-07-30T09:56:39;6.93;;;1.52;;
66012;SDS011;52783;50.502;8.190;2023-07-30T09:59:06;2.60;;;1.33;;
66012;SDS011;52783;50.502;8.190;2023-07-30T10:01:43;5.57;;;1.50;;
66012;SDS011;52783;50.502;8.190;2023-07-30T10:04:10;4.72;;;1.50;;
66012;SDS011;52783;50.502;8.190;2023-07-30T10:06:41;4.25;;;1.50;;
66012;SDS011;52783;50.502;8.190;2023-07-30T10:09:10;2.65;;;1.17;;
66012;SDS011;52783;50.502;8.190;2023-07-30T10:11:37;4.38;;;1.75;;
66012;SDS011;52783;50.502;8.190;2023-07-30T10:14:06;4.28;;;1.80;;
66012;SDS011;52783;50.502;8.190;2023-07-30T10:16:31;5.03;;;1.40;;
66012;SDS011;52783;50.502;8.190;2023-07-30T10:18:57;3.10;;;1.50;;
66012;SDS011;52783;50.502;8.190;2023-07-30T10:21:24;7.43;;;2.15;;
66012;SDS011;52783;50.502;8.190;2023-07-30T10:24:12;5.38;;;1.83;;
66012;SDS011;52783;50.502;8.190;2023-07-30T10:26:36;8.88;;;2.00;;
66012;SDS011;52783;50.502;8.190;2023-07-30T10:29:18;6.85;;;1.95;;
66012;SDS011;52783;50.502;8.190;2023-07-30T10:31:49;8.68;;;2.25;;
66012;SDS011;52783;50.502;8.190;2023-07-30T10:36:43;4.93;;;1.77;;
66012;SDS011;52783;50.502;8.190;2023-07-30T10:41:54;9.23;;;1.77;;
66012;SDS011;52783;50.502;8.190;2023-07-30T10:44:26;7.43;;;1.77;;
66012;SDS011;52783;50.502;8.190;2023-07-30T10:46:53;2.55;;;1.42;;
66012;SDS011;52783;50.502;8.190;2023-07-30T10:49:19;4.50;;;1.70;;
66012;SDS011;52783;50.502;8.190;2023-07-30T10:51:45;8.70;;;2.10;;
66012;SDS011;52783;50.502;8.190;2023-07-30T10:54:11;7.55;;;2.05;;
66012;SDS011;52783;50.502;8.190;2023-07-30T10:56:37;4.63;;;1.73;;
66012;SDS011;52783;50.502;8.190;2023-07-30T10:59:03;8.85;;;1.83;;
66012;SDS011;52783;50.502;8.190;2023-07-30T11:01:31;7.68;;;1.88;;
66012;SDS011;52783;50.502;8.190;2023-07-30T11:03:56;3.00;;;1.50;;
66012;SDS011;52783;50.502;8.190;2023-07-30T11:06:23;4.43;;;1.95;;
66012;SDS011;52783;50.502;8.190;2023-07-30T11:08:50;5.07;;;1.65;;
66012;SDS011;52783;50.502;8.190;2023-07-30T11:11:15;5.22;;;1.90;;
66012;SDS011;52783;50.502;8.190;2023-07-30T11:13:42;4.53;;;1.83;;
66012;SDS011;52783;50.502;8.190;2023-07-30T11:16:09;6.43;;;2.10;;
66012;SDS011;52783;50.502;8.190;2023-07-30T11:18:35;6.65;;;2.13;;
66012;SDS011;52783;50.502;8.190;2023-07-30T11:21:05;5.72;;;2.10;;
66012;SDS011;52783;50.502;8.190;2023-07-30T11:23:32;6.47;;;2.05;;
66012;SDS011;52783;50.502;8.190;2023-07-30T11:26:00;7.68;;;2.08;;
66012;SDS011;52783;50.502;8.190;2023-07-30T11:28:27;5.40;;;2.00;;
66012;SDS011;52783;50.502;8.190;2023-07-30T11:31:01;3.20;;;1.80;;
66012;SDS011;52783;50.502;8.190;2023-07-30T11:33:28;6.80;;;1.85;;
66012;SDS011;52783;50.502;8.190;2023-07-30T11:35:54;6.80;;;2.15;;
66012;SDS011;52783;50.502;8.190;2023-07-30T11:38:25;8.00;;;2.03;;
66012;SDS011;52783;50.502;8.190;2023-07-30T11:40:54;6.85;;;2.20;;
66012;SDS011;52783;50.502;8.190;2023-07-30T11:43:21;4.43;;;2.00;;
66012;SDS011;52783;50.502;8.190;2023-07-30T11:45:47;5.63;;;2.85;;
66012;SDS011;52783;50.502;8.190;2023-07-30T11:48:12;7.80;;;1.92;;
66012;SDS011;52783;50.502;8.190;2023-07-30T11:50:46;6.28;;;2.05;;
66012;SDS011;52783;50.502;8.190;2023-07-30T11:53:13;8.10;;;2.25;;
66012;SDS011;52783;50.502;8.190;2023-07-30T11:55:39;5.80;;;2.05;;
66012;SDS011;52783;50.502;8.190;2023-07-30T11:58:08;14.20;;;2.42;;
66012;SDS011;52783;50.502;8.190;2023-07-30T12:00:35;14.57;;;2.30;;
66012;SDS011;52783;50.502;8.190;2023-07-30T12:03:06;4.68;;;1.92;;
66012;SDS011;52783;50.502;8.190;2023-07-30T12:05:36;11.55;;;2.40;;
66012;SDS011;52783;50.502;8.190;2023-07-30T12:08:03;6.05;;;2.33;;
66012;SDS011;52783;50.502;8.190;2023-07-30T12:10:45;4.97;;;2.13;;
66012;SDS011;52783;50.502;8.190;2023-07-30T12:13:17;6.43;;;2.20;;
66012;SDS011;52783;50.502;8.190;2023-07-30T12:15:50;8.70;;;2.47;;
66012;SDS011;52783;50.502;8.190;2023-07-30T12:18:17;10.30;;;2.38;;
66012;SDS011;52783;50.502;8.190;2023-07-30T12:20:44;9.85;;;2.25;;
66012;SDS011;52783;50.502;8.190;2023-07-30T12:23:09;9.25;;;2.40;;
66012;SDS011;52783;50.502;8.190;2023-07-30T12:25:35;7.55;;;2.15;;
66012;SDS011;52783;50.502;8.190;2023-07-30T12:28:00;7.90;;;2.45;;
66012;SDS011;52783;50.502;8.190;2023-07-30T12:30:26;5.70;;;1.90;;
66012;SDS011;52783;50.502;8.190;2023-07-30T12:32:52;5.32;;;1.92;;
66012;SDS011;52783;50.502;8.190;2023-07-30T12:35:18;7.00;;;2.20;;
66012;SDS011;52783;50.502;8.190;2023-07-30T12:37:44;9.07;;;2.17;;
66012;SDS011;52783;50.502;8.190;2023-07-30T12:40:09;9.20;;;2.45;;
66012;SDS011;52783;50.502;8.190;2023-07-30T12:42:35;6.38;;;2.10;;
66012;SDS011;52783;50.502;8.190;2023-07-30T12:45:00;12.05;;;2.35;;
66012;SDS011;52783;50.502;8.190;2023-07-30T12:47:26;6.03;;;2.30;;
66012;SDS011;52783;50.502;8.190;2023-07-30T12:49:51;5.18;;;1.55;;
66012;SDS011;52783;50.502;8.190;2023-07-30T12:52:17;11.75;;;2.20;;
66012;SDS011;52783;50.502;8.190;2023-07-30T12:54:42;8.90;;;2.10;;
66012;SDS011;52783;50.502;8.190;2023-07-30T12:57:08;5.60;;;2.00;;
66012;SDS011;52783;50.502;8.190;2023-07-30T12:59:33;5.75;;;2.00;;
66012;SDS011;52783;50.502;8.190;2023-07-30T13:02:01;8.27;;;2.33;;
66012;SDS011;52783;50.502;8.190;2023-07-30T13:04:27;4.93;;;1.90;;
66012;SDS011;52783;50.502;8.190;2023-07-30T13:06:52;8.60;;;2.15;;
66012;SDS011;52783;50.502;8.190;2023-07-30T13:09:18;4.65;;;2.00;;
66012;SDS011;52783;50.502;8.190;2023-07-30T13:11:44;7.03;;;2.58;;
66012;SDS011;52783;50.502;8.190;2023-07-30T13:14:09;5.80;;;1.88;;
66012;SDS011;52783;50.502;8.190;2023-07-30T13:16:35;8.82;;;2.25;;
66012;SDS011;52783;50.502;8.190;2023-07-30T13:19:00;4.30;;;1.80;;
66012;SDS011;52783;50.502;8.190;2023-07-30T13:21:26;4.78;;;1.98;;
66012;SDS011;52783;50.502;8.190;2023-07-30T13:23:51;7.60;;;2.10;;
66012;SDS011;52783;50.502;8.190;2023-07-30T13:26:17;8.13;;;1.83;;
66012;SDS011;52783;50.502;8.190;2023-07-30T13:28:43;19.63;;;2.00;;
66012;SDS011;52783;50.502;8.190;2023-07-30T13:31:09;8.98;;;2.20;;
66012;SDS011;52783;50.502;8.190;2023-07-30T13:33:35;3.08;;;1.77;;
66012;SDS011;52783;50.502;8.190;2023-07-30T13:36:01;5.65;;;1.90;;
66012;SDS011;52783;50.502;8.190;2023-07-30T13:38:27;7.57;;;2.10;;
66012;SDS011;52783;50.502;8.190;2023-07-30T13:40:52;5.80;;;1.90;;
66012;SDS011;52783;50.502;8.190;2023-07-30T13:43:18;8.13;;;2.28;;
66012;SDS011;52783;50.502;8.190;2023-07-30T13:45:44;6.43;;;2.08;;
66012;SDS011;52783;50.502;8.190;2023-07-30T13:48:09;11.05;;;1.98;;
66012;SDS011;52783;50.502;8.190;2023-07-30T13:50:35;8.77;;;2.30;;
66012;SDS011;52783;50.502;8.190;2023-07-30T13:53:01;8.80;;;2.28;;
66012;SDS011;52783;50.502;8.190;2023-07-30T13:55:26;7.38;;;2.38;;
66012;SDS011;52783;50.502;8.190;2023-07-30T13:57:52;7.18;;;2.05;;
66012;SDS011;52783;50.502;8.190;2023-07-30T14:00:17;5.30;;;2.03;;
66012;SDS011;52783;50.502;8.190;2023-07-30T14:02:43;7.85;;;1.77;;
66012;SDS011;52783;50.502;8.190;2023-07-30T14:05:09;9.75;;;2.30;;
66012;SDS011;52783;50.502;8.190;2023-07-30T14:07:35;13.70;;;2.67;;
66012;SDS011;52783;50.502;8.190;2023-07-30T14:10:00;8.25;;;2.13;;
66012;SDS011;52783;50.502;8.190;2023-07-30T14:12:27;9.93;;;2.40;;
66012;SDS011;52783;50.502;8.190;2023-07-30T14:14:52;6.97;;;2.10;;
66012;SDS011;52783;50.502;8.190;2023-07-30T14:17:18;16.95;;;2.72;;
66012;SDS011;52783;50.502;8.190;2023-07-30T14:19:43;8.50;;;2.13;;
66012;SDS011;52783;50.502;8.190;2023-07-30T14:22:08;7.72;;;2.25;;
66012;SDS011;52783;50.502;8.190;2023-07-30T14:24:34;6.63;;;2.05;;
66012;SDS011;52783;50.502;8.190;2023-07-30T14:27:02;4.03;;;1.90;;
66012;SDS011;52783;50.502;8.190;2023-07-30T14:29:28;6.80;;;1.95;;
66012;SDS011;52783;50.502;8.190;2023-07-30T14:31:53;4.20;;;1.88;;
66012;SDS011;52783;50.502;8.190;2023-07-30T14:34:19;6.18;;;1.90;;
66012;SDS011;52783;50.502;8.190;2023-07-30T14:36:44;11.52;;;2.33;;
66012;SDS011;52783;50.502;8.190;2023-07-30T14:39:10;5.85;;;1.80;;
66012;SDS011;52783;50.502;8.190;2023-07-30T14:41:35;5.38;;;1.90;;
66012;SDS011;52783;50.502;8.190;2023-07-30T14:44:01;5.38;;;1.88;;
66012;SDS011;52783;50.502;8.190;2023-07-30T14:46:26;6.22;;;1.80;;
66012;SDS011;52783;50.502;8.190;2023-07-30T14:48:52;8.75;;;2.17;;